sensor_id;sensor_type;location;lat;lon;timestamp;pressure;altitude;pressure_sealevel;temperature;humidity
19526;BME280;9907;42.676;26.348;2023-07-08T00:01:19;98713.78;;;23.48;71.96
19526;BME280;9907;42.676;26.348;2023-07-08T00:03:45;98713.66;;;23.43;71.50
19526;BME280;9907;42.676;26.348;2023-07-08T00:06:15;98715.81;;;23.52;70.93
19526;BME280;9907;42.676;26.348;2023-07-08T00:08:42;98727.28;;;23.43;71.41
19526;BME280;9907;42.676;26.348;2023-07-08T00:11:10;98716.38;;;23.36;71.57
19526;BME280;9907;42.676;26.348;2023-07-08T00:13:36;98723.88;;;23.41;71.28
19526;BME280;9907;42.676;26.348;2023-07-08T00:16:01;98708.56;;;23.46;70.54
19526;BME280;9907;42.676;26.348;2023-07-08T00:18:27;98716.75;;;23.40;70.90
19526;BME280;9907;42.676;26.348;2023-07-08T00:20:52;98716.63;;;23.35;70.77
19526;BME280;9907;42.676;26.348;2023-07-08T00:23:18;98721.72;;;23.31;70.73
19526;BME280;9907;42.676;26.348;2023-07-08T00:25:49;98714.13;;;23.33;71.03
19526;BME280;9907;42.676;26.348;2023-07-08T00:28:16;98716.00;;;23.33;70.94
19526;BME280;9907;42.676;26.348;2023-07-08T00:30:42;98718.91;;;23.38;70.66
19526;BME280;9907;42.676;26.348;2023-07-08T00:33:08;98719.09;;;23.43;71.31
19526;BME280;9907;42.676;26.348;2023-07-08T00:38:02;98713.75;;;23.29;72.23
19526;BME280;9907;42.676;26.348;2023-07-08T00:40:38;98714.38;;;23.32;71.37
19526;BME280;9907;42.676;26.348;2023-07-08T00:43:05;98706.56;;;23.35;71.43
19526;BME280;9907;42.676;26.348;2023-07-08T00:48:12;98708.44;;;23.16;73.17
19526;BME280;9907;42.676;26.348;2023-07-08T00:50:40;98703.59;;;23.18;73.32
19526;BME280;9907;42.676;26.348;2023-07-08T00:53:26;98714.75;;;23.17;72.83
19526;BME280;9907;42.676;26.348;2023-07-08T00:56:05;98709.34;;;23.28;71.73
19526;BME280;9907;42.676;26.348;2023-07-08T00:58:48;98715.03;;;23.27;71.31
19526;BME280;9907;42.676;26.348;2023-07-08T01:01:16;98720.50;;;23.27;72.07
19526;BME280;9907;42.676;26.348;2023-07-08T01:03:50;98718.72;;;23.33;70.99
19526;BME280;9907;42.676;26.348;2023-07-08T01:06:19;98707.69;;;23.27;71.07
19526;BME280;9907;42.676;26.348;2023-07-08T01:08:48;98701.50;;;23.20;72.21
19526;BME280;9907;42.676;26.348;2023-07-08T01:11:18;98704.44;;;23.19;71.54
19526;BME280;9907;42.676;26.348;2023-07-08T01:13:48;98708.66;;;23.15;71.34
19526;BME280;9907;42.676;26.348;2023-07-08T01:16:16;98707.63;;;23.16;71.84
19526;BME280;9907;42.676;26.348;2023-07-08T01:18:42;98708.66;;;23.15;71.13
19526;BME280;9907;42.676;26.348;2023-07-08T01:21:31;98701.44;;;23.02;72.37
19526;BME280;9907;42.676;26.348;2023-07-08T01:23:57;98683.78;;;23.11;72.09
19526;BME280;9907;42.676;26.348;2023-07-08T01:26:25;98687.09;;;23.13;72.19
19526;BME280;9907;42.676;26.348;2023-07-08T01:28:55;98681.50;;;23.08;72.19
19526;BME280;9907;42.676;26.348;2023-07-08T01:31:22;98681.03;;;23.11;72.06
19526;BME280;9907;42.676;26.348;2023-07-08T01:33:48;98682.38;;;23.02;71.98
19526;BME280;9907;42.676;26.348;2023-07-08T01:36:16;98669.84;;;23.01;71.92
19526;BME280;9907;42.676;26.348;2023-07-08T01:38:43;98683.84;;;23.05;71.58
19526;BME280;9907;42.676;26.348;2023-07-08T01:41:15;98674.22;;;23.02;71.78
19526;BME280;9907;42.676;26.348;2023-07-08T01:43:42;98664.31;;;23.08;71.95
19526;BME280;9907;42.676;26.348;2023-07-08T01:46:26;98665.91;;;22.97;72.01
19526;BME280;9907;42.676;26.348;2023-07-08T01:48:57;98657.94;;;22.96;71.50
19526;BME280;9907;42.676;26.348;2023-07-08T01:51:24;98657.28;;;23.00;71.80
19526;BME280;9907;42.676;26.348;2023-07-08T01:53:50;98660.84;;;23.01;72.83
19526;BME280;9907;42.676;26.348;2023-07-08T01:56:16;98651.84;;;23.00;71.33
19526;BME280;9907;42.676;26.348;2023-07-08T01:58:42;98647.06;;;22.96;71.15
19526;BME280;9907;42.676;26.348;2023-07-08T02:01:07;98653.25;;;22.85;71.57
19526;BME280;9907;42.676;26.348;2023-07-08T02:03:33;98651.16;;;22.87;71.76
19526;BME280;9907;42.676;26.348;2023-07-08T02:05:59;98648.81;;;22.90;71.87
19526;BME280;9907;42.676;26.348;2023-07-08T02:08:24;98650.91;;;22.88;71.59
19526;BME280;9907;42.676;26.348;2023-07-08T02:10:52;98644.63;;;22.88;69.18
19526;BME280;9907;42.676;26.348;2023-07-08T02:13:19;98627.84;;;22.91;67.99
19526;BME280;9907;42.676;26.348;2023-07-08T02:15:44;98632.28;;;22.85;67.10
19526;BME280;9907;42.676;26.348;2023-07-08T02:18:10;98623.53;;;22.83;67.63
19526;BME280;9907;42.676;26.348;2023-07-08T02:20:35;98632.91;;;22.87;68.52
19526;BME280;9907;42.676;26.348;2023-07-08T02:23:01;98645.06;;;22.85;68.34
19526;BME280;9907;42.676;26.348;2023-07-08T02:25:26;98650.59;;;22.78;69.29
19526;BME280;9907;42.676;26.348;2023-07-08T02:27:52;98641.38;;;22.79;69.46
19526;BME280;9907;42.676;26.348;2023-07-08T02:30:22;98651.59;;;22.84;68.84
19526;BME280;9907;42.676;26.348;2023-07-08T02:32:48;98663.47;;;22.89;67.83
19526;BME280;9907;42.676;26.348;2023-07-08T02:35:22;98659.97;;;22.82;67.79
19526;BME280;9907;42.676;26.348;2023-07-08T02:37:48;98671.47;;;22.84;66.25
19526;BME280;9907;42.676;26.348;2023-07-08T02:40:13;98674.88;;;22.79;65.31
19526;BME280;9907;42.676;26.348;2023-07-08T02:42:39;98680.75;;;22.76;64.29
19526;BME280;9907;42.676;26.348;2023-07-08T02:45:05;98686.69;;;22.67;64.70
19526;BME280;9907;42.676;26.348;2023-07-08T02:47:31;98694.41;;;22.45;65.16
19526;BME280;9907;42.676;26.348;2023-07-08T02:49:56;98682.25;;;22.48;65.79
19526;BME280;9907;42.676;26.348;2023-07-08T02:52:22;98694.22;;;22.40;66.38
19526;BME280;9907;42.676;26.348;2023-07-08T02:54:47;98707.06;;;22.33;66.96
19526;BME280;9907;42.676;26.348;2023-07-08T02:57:12;98712.75;;;22.31;67.07
19526;BME280;9907;42.676;26.348;2023-07-08T02:59:38;98711.28;;;22.29;68.00
19526;BME280;9907;42.676;26.348;2023-07-08T03:02:04;98705.34;;;22.39;68.25
19526;BME280;9907;42.676;26.348;2023-07-08T03:04:29;98719.41;;;22.36;68.78
19526;BME280;9907;42.676;26.348;2023-07-08T03:06:55;98704.06;;;22.41;69.12
19526;BME280;9907;42.676;26.348;2023-07-08T03:09:20;98724.75;;;22.49;70.32
19526;BME280;9907;42.676;26.348;2023-07-08T03:11:46;98722.63;;;22.51;70.37
19526;BME280;9907;42.676;26.348;2023-07-08T03:14:12;98725.25;;;22.39;71.28
19526;BME280;9907;42.676;26.348;2023-07-08T03:16:37;98705.56;;;22.37;71.98
19526;BME280;9907;42.676;26.348;2023-07-08T03:19:03;98717.03;;;22.46;71.89
19526;BME280;9907;42.676;26.348;2023-07-08T03:21:30;98724.53;;;22.50;72.22
19526;BME280;9907;42.676;26.348;2023-07-08T03:23:56;98720.97;;;22.50;72.67
19526;BME280;9907;42.676;26.348;2023-07-08T03:26:25;98738.41;;;22.42;72.63
19526;BME280;9907;42.676;26.348;2023-07-08T03:28:51;98733.47;;;22.26;73.44
19526;BME280;9907;42.676;26.348;2023-07-08T03:31:17;98741.00;;;22.30;73.95
19526;BME280;9907;42.676;26.348;2023-07-08T03:33:43;98751.25;;;22.28;74.03
19526;BME280;9907;42.676;26.348;2023-07-08T03:36:12;98739.94;;;22.31;74.00
19526;BME280;9907;42.676;26.348;2023-07-08T03:38:38;98744.75;;;22.29;73.51
19526;BME280;9907;42.676;26.348;2023-07-08T03:41:05;98758.34;;;22.29;73.53
19526;BME280;9907;42.676;26.348;2023-07-08T03:43:30;98753.16;;;22.28;74.08
19526;BME280;9907;42.676;26.348;2023-07-08T03:45:56;98750.97;;;22.37;73.81
19526;BME280;9907;42.676;26.348;2023-07-08T03:48:21;98756.22;;;22.38;74.28
19526;BME280;9907;42.676;26.348;2023-07-08T03:50:47;98758.09;;;22.38;73.50
19526;BME280;9907;42.676;26.348;2023-07-08T03:53:13;98761.78;;;22.50;73.27
19526;BME280;9907;42.676;26.348;2023-07-08T03:55:38;98772.22;;;22.53;73.32
19526;BME280;9907;42.676;26.348;2023-07-08T03:58:04;98765.78;;;22.47;72.11
19526;BME280;9907;42.676;26.348;2023-07-08T04:00:29;98774.13;;;22.52;73.02
19526;BME280;9907;42.676;26.348;2023-07-08T04:02:55;98783.06;;;22.59;72.05
19526;BME280;9907;42.676;26.348;2023-07-08T04:05:22;98770.47;;;22.65;71.76
19526;BME280;9907;42.676;26.348;2023-07-08T04:07:48;98775.53;;;22.61;71.45
19526;BME280;9907;42.676;26.348;2023-07-08T04:10:15;98777.16;;;22.69;71.10
19526;BME280;9907;42.676;26.348;2023-07-08T04:12:42;98766.44;;;22.74;70.80
19526;BME280;9907;42.676;26.348;2023-07-08T04:15:08;98772.53;;;22.76;70.73
19526;BME280;9907;42.676;26.348;2023-07-08T04:17:39;98772.91;;;22.79;71.15
19526;BME280;9907;42.676;26.348;2023-07-08T04:20:13;98776.69;;;22.78;71.21
19526;BME280;9907;42.676;26.348;2023-07-08T04:22:39;98771.00;;;22.80;69.79
19526;BME280;9907;42.676;26.348;2023-07-08T04:25:05;98781.63;;;22.88;69.05
19526;BME280;9907;42.676;26.348;2023-07-08T04:27:31;98778.94;;;22.82;68.85
19526;BME280;9907;42.676;26.348;2023-07-08T04:29:57;98776.84;;;22.84;69.21
19526;BME280;9907;42.676;26.348;2023-07-08T04:32:22;98785.84;;;22.84;69.39
19526;BME280;9907;42.676;26.348;2023-07-08T04:34:51;98792.56;;;22.82;69.25
19526;BME280;9907;42.676;26.348;2023-07-08T04:37:17;98788.69;;;22.64;69.83
19526;BME280;9907;42.676;26.348;2023-07-08T04:39:44;98788.84;;;22.76;69.48
19526;BME280;9907;42.676;26.348;2023-07-08T04:42:10;98789.66;;;22.76;69.73
19526;BME280;9907;42.676;26.348;2023-07-08T04:44:38;98784.47;;;22.75;70.46
19526;BME280;9907;42.676;26.348;2023-07-08T04:47:03;98790.47;;;22.84;71.61
19526;BME280;9907;42.676;26.348;2023-07-08T04:49:29;98788.78;;;22.83;72.35
19526;BME280;9907;42.676;26.348;2023-07-08T04:51:57;98805.84;;;22.71;71.04
19526;BME280;9907;42.676;26.348;2023-07-08T04:54:24;98797.13;;;22.88;71.63
19526;BME280;9907;42.676;26.348;2023-07-08T04:56:50;98812.97;;;22.97;70.10
19526;BME280;9907;42.676;26.348;2023-07-08T04:59:20;98796.50;;;23.10;70.71
19526;BME280;9907;42.676;26.348;2023-07-08T05:01:46;98807.41;;;23.10;68.93
19526;BME280;9907;42.676;26.348;2023-07-08T05:04:16;98797.56;;;22.85;69.90
19526;BME280;9907;42.676;26.348;2023-07-08T05:06:42;98796.00;;;22.95;69.42
19526;BME280;9907;42.676;26.348;2023-07-08T05:09:08;98802.91;;;22.98;69.01
19526;BME280;9907;42.676;26.348;2023-07-08T05:11:34;98807.97;;;22.94;68.73
19526;BME280;9907;42.676;26.348;2023-07-08T05:14:00;98819.22;;;22.73;69.77
19526;BME280;9907;42.676;26.348;2023-07-08T05:16:26;98818.66;;;22.64;70.54
19526;BME280;9907;42.676;26.348;2023-07-08T05:18:52;98818.47;;;22.59;71.19
19526;BME280;9907;42.676;26.348;2023-07-08T05:21:18;98803.13;;;22.71;71.01
19526;BME280;9907;42.676;26.348;2023-07-08T05:23:45;98827.63;;;22.71;70.68
19526;BME280;9907;42.676;26.348;2023-07-08T05:26:11;98815.69;;;22.72;70.54
19526;BME280;9907;42.676;26.348;2023-07-08T05:28:36;98816.88;;;22.76;70.12
19526;BME280;9907;42.676;26.348;2023-07-08T05:31:02;98812.28;;;22.77;69.35
19526;BME280;9907;42.676;26.348;2023-07-08T05:33:30;98814.28;;;22.88;68.85
19526;BME280;9907;42.676;26.348;2023-07-08T05:35:56;98817.31;;;23.05;68.27
19526;BME280;9907;42.676;26.348;2023-07-08T05:38:23;98813.94;;;23.09;67.25
19526;BME280;9907;42.676;26.348;2023-07-08T05:40:50;98812.16;;;23.40;66.80
19526;BME280;9907;42.676;26.348;2023-07-08T05:43:16;98807.75;;;23.63;65.81
19526;BME280;9907;42.676;26.348;2023-07-08T05:45:42;98807.22;;;23.73;64.36
19526;BME280;9907;42.676;26.348;2023-07-08T05:48:07;98809.63;;;24.17;63.41
19526;BME280;9907;42.676;26.348;2023-07-08T05:50:33;98803.72;;;24.20;62.59
19526;BME280;9907;42.676;26.348;2023-07-08T05:52:58;98803.81;;;24.44;61.66
19526;BME280;9907;42.676;26.348;2023-07-08T05:55:24;98807.94;;;24.76;60.98
19526;BME280;9907;42.676;26.348;2023-07-08T05:57:49;98818.88;;;24.76;60.19
19526;BME280;9907;42.676;26.348;2023-07-08T06:00:14;98818.84;;;24.94;59.50
19526;BME280;9907;42.676;26.348;2023-07-08T06:02:40;98812.09;;;25.08;59.05
19526;BME280;9907;42.676;26.348;2023-07-08T06:05:06;98815.31;;;25.05;59.62
19526;BME280;9907;42.676;26.348;2023-07-08T06:07:31;98829.38;;;24.91;60.26
19526;BME280;9907;42.676;26.348;2023-07-08T06:09:57;98815.94;;;24.48;60.64
19526;BME280;9907;42.676;26.348;2023-07-08T06:12:24;98830.84;;;24.34;61.18
19526;BME280;9907;42.676;26.348;2023-07-08T06:14:50;98825.53;;;24.20;62.48
19526;BME280;9907;42.676;26.348;2023-07-08T06:17:16;98819.47;;;24.37;62.25
19526;BME280;9907;42.676;26.348;2023-07-08T06:19:42;98806.69;;;24.49;61.54
19526;BME280;9907;42.676;26.348;2023-07-08T06:22:08;98798.06;;;24.63;61.52
19526;BME280;9907;42.676;26.348;2023-07-08T06:24:34;98804.78;;;24.79;60.42
19526;BME280;9907;42.676;26.348;2023-07-08T06:26:59;98806.63;;;25.08;60.05
19526;BME280;9907;42.676;26.348;2023-07-08T06:29:25;98800.91;;;24.98;61.06
19526;BME280;9907;42.676;26.348;2023-07-08T06:31:50;98813.72;;;24.86;58.38
19526;BME280;9907;42.676;26.348;2023-07-08T06:34:18;98814.69;;;24.62;57.56
19526;BME280;9907;42.676;26.348;2023-07-08T06:36:43;98808.81;;;24.47;59.62
19526;BME280;9907;42.676;26.348;2023-07-08T06:39:09;98800.13;;;24.68;58.49
19526;BME280;9907;42.676;26.348;2023-07-08T06:41:37;98783.84;;;24.73;57.89
19526;BME280;9907;42.676;26.348;2023-07-08T06:44:03;98783.41;;;24.88;58.54
19526;BME280;9907;42.676;26.348;2023-07-08T06:46:28;98775.78;;;24.78;58.22
19526;BME280;9907;42.676;26.348;2023-07-08T06:48:54;98765.13;;;24.88;58.97
19526;BME280;9907;42.676;26.348;2023-07-08T06:51:19;98755.53;;;24.86;58.10
19526;BME280;9907;42.676;26.348;2023-07-08T06:53:44;98762.03;;;24.85;59.59
19526;BME280;9907;42.676;26.348;2023-07-08T06:56:10;98768.59;;;24.95;58.60
19526;BME280;9907;42.676;26.348;2023-07-08T06:58:35;98765.50;;;24.92;59.45
19526;BME280;9907;42.676;26.348;2023-07-08T07:01:01;98769.59;;;24.71;62.02
19526;BME280;9907;42.676;26.348;2023-07-08T07:03:26;98795.88;;;24.42;60.67
19526;BME280;9907;42.676;26.348;2023-07-08T07:05:52;98802.88;;;23.84;62.31
19526;BME280;9907;42.676;26.348;2023-07-08T07:08:17;98810.88;;;23.85;64.15
19526;BME280;9907;42.676;26.348;2023-07-08T07:10:43;98817.06;;;23.92;69.96
19526;BME280;9907;42.676;26.348;2023-07-08T07:13:08;98815.00;;;23.88;74.42
19526;BME280;9907;42.676;26.348;2023-07-08T07:15:34;98807.38;;;23.60;74.98
19526;BME280;9907;42.676;26.348;2023-07-08T07:18:00;98815.25;;;23.50;83.13
19526;BME280;9907;42.676;26.348;2023-07-08T07:20:26;98814.28;;;23.38;80.03
19526;BME280;9907;42.676;26.348;2023-07-08T07:22:52;98818.13;;;23.55;82.54
19526;BME280;9907;42.676;26.348;2023-07-08T07:25:17;98807.50;;;23.47;84.13
19526;BME280;9907;42.676;26.348;2023-07-08T07:27:43;98818.03;;;23.18;93.45
19526;BME280;9907;42.676;26.348;2023-07-08T07:30:09;98818.03;;;23.18;95.25
19526;BME280;9907;42.676;26.348;2023-07-08T07:32:38;98814.13;;;23.33;87.31
19526;BME280;9907;42.676;26.348;2023-07-08T07:35:04;98828.44;;;23.28;94.24
19526;BME280;9907;42.676;26.348;2023-07-08T07:37:30;98828.91;;;23.43;85.82
19526;BME280;9907;42.676;26.348;2023-07-08T07:39:55;98826.75;;;23.52;84.48
19526;BME280;9907;42.676;26.348;2023-07-08T07:42:20;98832.91;;;23.41;84.92
19526;BME280;9907;42.676;26.348;2023-07-08T07:44:46;98840.31;;;23.34;85.57
19526;BME280;9907;42.676;26.348;2023-07-08T07:47:12;98837.22;;;23.05;85.35
19526;BME280;9907;42.676;26.348;2023-07-08T07:49:37;98841.09;;;23.16;81.84
19526;BME280;9907;42.676;26.348;2023-07-08T07:52:04;98849.56;;;23.08;82.86
19526;BME280;9907;42.676;26.348;2023-07-08T07:54:30;98837.22;;;23.05;80.40
19526;BME280;9907;42.676;26.348;2023-07-08T07:56:55;98846.94;;;23.19;84.27
19526;BME280;9907;42.676;26.348;2023-07-08T07:59:21;98851.34;;;23.20;81.88
19526;BME280;9907;42.676;26.348;2023-07-08T08:01:46;98843.19;;;23.45;80.09
19526;BME280;9907;42.676;26.348;2023-07-08T08:04:12;98836.59;;;23.28;79.27
19526;BME280;9907;42.676;26.348;2023-07-08T08:06:37;98847.00;;;23.38;78.80
19526;BME280;9907;42.676;26.348;2023-07-08T08:09:04;98847.34;;;22.98;87.90
19526;BME280;9907;42.676;26.348;2023-07-08T08:11:29;98849.88;;;22.93;84.84
19526;BME280;9907;42.676;26.348;2023-07-08T08:13:55;98854.56;;;23.11;86.65
19526;BME280;9907;42.676;26.348;2023-07-08T08:16:21;98851.94;;;22.98;88.63
19526;BME280;9907;42.676;26.348;2023-07-08T08:18:46;98862.56;;;23.06;83.28
19526;BME280;9907;42.676;26.348;2023-07-08T08:21:12;98868.03;;;23.06;80.54
19526;BME280;9907;42.676;26.348;2023-07-08T08:23:37;98867.84;;;23.01;77.68
19526;BME280;9907;42.676;26.348;2023-07-08T08:26:03;98874.53;;;23.05;77.12
19526;BME280;9907;42.676;26.348;2023-07-08T08:28:28;98873.75;;;23.22;75.71
19526;BME280;9907;42.676;26.348;2023-07-08T08:30:54;98877.19;;;23.36;76.77
19526;BME280;9907;42.676;26.348;2023-07-08T08:33:20;98890.59;;;23.38;76.63
19526;BME280;9907;42.676;26.348;2023-07-08T08:35:46;98888.25;;;23.41;77.68
19526;BME280;9907;42.676;26.348;2023-07-08T08:38:11;98899.22;;;23.35;78.07
19526;BME280;9907;42.676;26.348;2023-07-08T08:40:39;98900.63;;;23.44;79.79
19526;BME280;9907;42.676;26.348;2023-07-08T08:43:35;98902.47;;;23.50;77.68
19526;BME280;9907;42.676;26.348;2023-07-08T08:51:49;98902.56;;;23.61;78.86
19526;BME280;9907;42.676;26.348;2023-07-08T08:54:16;98905.41;;;23.48;86.86
19526;BME280;9907;42.676;26.348;2023-07-08T08:56:59;98916.97;;;23.44;83.01
19526;BME280;9907;42.676;26.348;2023-07-08T09:01:55;98916.44;;;23.60;82.61
19526;BME280;9907;42.676;26.348;2023-07-08T09:04:33;98923.44;;;23.74;83.63
19526;BME280;9907;42.676;26.348;2023-07-08T09:07:07;98930.38;;;23.70;84.48
19526;BME280;9907;42.676;26.348;2023-07-08T09:09:46;98945.94;;;23.88;79.94
19526;BME280;9907;42.676;26.348;2023-07-08T09:12:18;98946.78;;;23.88;80.91
19526;BME280;9907;42.676;26.348;2023-07-08T09:14:46;98946.91;;;23.75;81.69
19526;BME280;9907;42.676;26.348;2023-07-08T09:17:27;98941.00;;;23.78;79.08
19526;BME280;9907;42.676;26.348;2023-07-08T09:22:39;98952.38;;;23.75;75.12
19526;BME280;9907;42.676;26.348;2023-07-08T09:27:41;98952.84;;;23.65;75.06
19526;BME280;9907;42.676;26.348;2023-07-08T09:30:16;98943.97;;;23.52;74.14
19526;BME280;9907;42.676;26.348;2023-07-08T09:32:42;98936.06;;;23.44;73.11
19526;BME280;9907;42.676;26.348;2023-07-08T09:35:11;98927.00;;;23.50;73.00
19526;BME280;9907;42.676;26.348;2023-07-08T09:37:45;98915.47;;;23.48;72.01
19526;BME280;9907;42.676;26.348;2023-07-08T09:42:43;98910.66;;;23.93;72.45
19526;BME280;9907;42.676;26.348;2023-07-08T09:45:14;98903.97;;;23.89;70.79
19526;BME280;9907;42.676;26.348;2023-07-08T09:47:42;98890.97;;;24.09;70.19
19526;BME280;9907;42.676;26.348;2023-07-08T09:50:30;98894.28;;;24.11;71.45
19526;BME280;9907;42.676;26.348;2023-07-08T09:52:59;98895.72;;;24.32;70.54
19526;BME280;9907;42.676;26.348;2023-07-08T09:55:27;98886.41;;;24.39;72.85
19526;BME280;9907;42.676;26.348;2023-07-08T09:57:55;98877.38;;;24.57;72.05
19526;BME280;9907;42.676;26.348;2023-07-08T10:00:29;98881.75;;;24.58;70.46
19526;BME280;9907;42.676;26.348;2023-07-08T10:03:03;98882.81;;;24.57;73.25
19526;BME280;9907;42.676;26.348;2023-07-08T10:05:35;98885.03;;;24.48;68.91
19526;BME280;9907;42.676;26.348;2023-07-08T10:08:13;98880.31;;;24.55;73.77
19526;BME280;9907;42.676;26.348;2023-07-08T10:10:39;98864.81;;;24.67;70.22
19526;BME280;9907;42.676;26.348;2023-07-08T10:13:35;98877.63;;;24.85;66.14
19526;BME280;9907;42.676;26.348;2023-07-08T10:16:15;98863.50;;;24.70;63.89
19526;BME280;9907;42.676;26.348;2023-07-08T10:18:41;98863.88;;;25.03;67.82
19526;BME280;9907;42.676;26.348;2023-07-08T10:30:14;98865.31;;;25.17;64.24
19526;BME280;9907;42.676;26.348;2023-07-08T10:35:21;98859.97;;;25.11;61.16
19526;BME280;9907;42.676;26.348;2023-07-08T10:41:14;98867.47;;;25.15;60.32
19526;BME280;9907;42.676;26.348;2023-07-08T10:51:56;98857.41;;;25.51;61.82
19526;BME280;9907;42.676;26.348;2023-07-08T11:02:51;98855.97;;;25.95;58.78
19526;BME280;9907;42.676;26.348;2023-07-08T11:05:42;98853.56;;;25.98;56.77
19526;BME280;9907;42.676;26.348;2023-07-08T11:08:22;98855.75;;;25.73;56.79
19526;BME280;9907;42.676;26.348;2023-07-08T11:10:56;98858.25;;;25.86;57.16
19526;BME280;9907;42.676;26.348;2023-07-08T11:13:26;98849.31;;;25.91;57.39
19526;BME280;9907;42.676;26.348;2023-07-08T11:18:48;98845.16;;;25.88;56.27
19526;BME280;9907;42.676;26.348;2023-07-08T11:21:29;98856.44;;;25.92;56.55
19526;BME280;9907;42.676;26.348;2023-07-08T11:27:13;98862.28;;;25.72;55.87
19526;BME280;9907;42.676;26.348;2023-07-08T11:30:17;98867.63;;;25.44;55.54
19526;BME280;9907;42.676;26.348;2023-07-08T11:32:48;98856.38;;;25.52;55.68
19526;BME280;9907;42.676;26.348;2023-07-08T11:35:43;98840.88;;;25.69;55.50
19526;BME280;9907;42.676;26.348;2023-07-08T11:38:15;98846.91;;;25.94;56.51
19526;BME280;9907;42.676;26.348;2023-07-08T11:40:55;98848.09;;;25.98;55.08
19526;BME280;9907;42.676;26.348;2023-07-08T11:43:23;98845.50;;;25.92;54.71
19526;BME280;9907;42.676;26.348;2023-07-08T11:45:50;98844.66;;;25.91;55.33
19526;BME280;9907;42.676;26.348;2023-07-08T11:48:24;98850.13;;;25.91;54.30
19526;BME280;9907;42.676;26.348;2023-07-08T11:50:52;98862.53;;;25.59;54.29
19526;BME280;9907;42.676;26.348;2023-07-08T11:53:31;98869.28;;;25.45;53.74
19526;BME280;9907;42.676;26.348;2023-07-08T12:06:40;98862.66;;;25.76;53.73
19526;BME280;9907;42.676;26.348;2023-07-08T12:09:27;98855.13;;;25.48;53.95
19526;BME280;9907;42.676;26.348;2023-07-08T12:12:02;98853.03;;;25.73;53.88
19526;BME280;9907;42.676;26.348;2023-07-08T12:14:29;98836.59;;;25.85;54.12
19526;BME280;9907;42.676;26.348;2023-07-08T12:16:55;98834.41;;;25.98;54.59
19526;BME280;9907;42.676;26.348;2023-07-08T12:19:22;98837.13;;;26.10;52.94
19526;BME280;9907;42.676;26.348;2023-07-08T12:21:51;98848.78;;;26.05;53.35
19526;BME280;9907;42.676;26.348;2023-07-08T12:24:18;98842.63;;;25.98;52.58
19526;BME280;9907;42.676;26.348;2023-07-08T12:26:44;98828.03;;;25.81;53.21
19526;BME280;9907;42.676;26.348;2023-07-08T12:29:12;98832.31;;;25.89;53.54
19526;BME280;9907;42.676;26.348;2023-07-08T12:31:41;98832.28;;;26.00;53.47
19526;BME280;9907;42.676;26.348;2023-07-08T12:34:12;98826.28;;;26.15;54.31
19526;BME280;9907;42.676;26.348;2023-07-08T12:36:39;98839.38;;;26.25;53.35
19526;BME280;9907;42.676;26.348;2023-07-08T12:39:05;98839.50;;;26.30;53.18
19526;BME280;9907;42.676;26.348;2023-07-08T12:41:33;98828.91;;;26.22;53.50
19526;BME280;9907;42.676;26.348;2023-07-08T12:44:00;98820.38;;;26.18;52.77
19526;BME280;9907;42.676;26.348;2023-07-08T12:46:27;98821.75;;;26.32;52.38
19526;BME280;9907;42.676;26.348;2023-07-08T12:48:52;98833.28;;;26.34;52.55
19526;BME280;9907;42.676;26.348;2023-07-08T12:51:24;98835.84;;;26.12;52.69
19526;BME280;9907;42.676;26.348;2023-07-08T12:53:51;98846.06;;;26.05;52.14
19526;BME280;9907;42.676;26.348;2023-07-08T12:56:18;98830.50;;;25.94;53.08
19526;BME280;9907;42.676;26.348;2023-07-08T12:58:49;98838.09;;;26.04;53.21
19526;BME280;9907;42.676;26.348;2023-07-08T13:01:21;98832.50;;;26.10;53.23
19526;BME280;9907;42.676;26.348;2023-07-08T13:03:50;98821.66;;;26.15;53.02
19526;BME280;9907;42.676;26.348;2023-07-08T13:06:21;98817.25;;;26.14;52.65
19526;BME280;9907;42.676;26.348;2023-07-08T13:08:48;98819.88;;;26.09;52.68
19526;BME280;9907;42.676;26.348;2023-07-08T13:11:15;98821.06;;;26.13;53.76
19526;BME280;9907;42.676;26.348;2023-07-08T13:14:01;98823.72;;;25.97;53.65
19526;BME280;9907;42.676;26.348;2023-07-08T13:16:31;98818.34;;;26.02;53.10
19526;BME280;9907;42.676;26.348;2023-07-08T13:18:59;98815.72;;;26.07;53.39
19526;BME280;9907;42.676;26.348;2023-07-08T13:21:25;98819.19;;;26.02;52.90
19526;BME280;9907;42.676;26.348;2023-07-08T13:23:53;98807.41;;;26.02;53.55
19526;BME280;9907;42.676;26.348;2023-07-08T13:26:21;98815.53;;;25.97;53.65
19526;BME280;9907;42.676;26.348;2023-07-08T13:28:47;98820.63;;;26.05;53.32
19526;BME280;9907;42.676;26.348;2023-07-08T13:31:21;98821.22;;;25.95;53.68
19526;BME280;9907;42.676;26.348;2023-07-08T13:33:51;98833.50;;;25.93;54.21
19526;BME280;9907;42.676;26.348;2023-07-08T13:36:19;98837.09;;;25.82;55.08
19526;BME280;9907;42.676;26.348;2023-07-08T13:38:46;98840.19;;;25.62;55.37
19526;BME280;9907;42.676;26.348;2023-07-08T13:41:19;98838.22;;;25.28;56.40
19526;BME280;9907;42.676;26.348;2023-07-08T13:43:45;98847.03;;;24.77;56.63
19526;BME280;9907;42.676;26.348;2023-07-08T13:46:39;98831.22;;;24.37;58.31
19526;BME280;9907;42.676;26.348;2023-07-08T13:49:14;98838.09;;;24.40;58.31
19526;BME280;9907;42.676;26.348;2023-07-08T13:51:40;98845.28;;;24.52;58.32
19526;BME280;9907;42.676;26.348;2023-07-08T13:54:16;98837.50;;;24.67;58.19
19526;BME280;9907;42.676;26.348;2023-07-08T13:56:44;98839.41;;;24.67;58.28
19526;BME280;9907;42.676;26.348;2023-07-08T13:59:14;98838.72;;;24.71;58.26
19526;BME280;9907;42.676;26.348;2023-07-08T14:01:42;98832.31;;;24.48;59.34
19526;BME280;9907;42.676;26.348;2023-07-08T14:04:14;98836.06;;;24.65;58.72
19526;BME280;9907;42.676;26.348;2023-07-08T14:06:41;98834.16;;;24.65;58.50
19526;BME280;9907;42.676;26.348;2023-07-08T14:09:13;98837.16;;;24.64;58.30
19526;BME280;9907;42.676;26.348;2023-07-08T14:11:38;98827.69;;;24.78;57.91
19526;BME280;9907;42.676;26.348;2023-07-08T14:14:04;98843.16;;;24.54;59.62
19526;BME280;9907;42.676;26.348;2023-07-08T14:16:31;98844.53;;;24.15;61.65